Time;durP1;ratioP1;P1;durP2;ratioP2;P2;SDS_P1;SDS_P2;PMS_P1;PMS_P2;Temp;Humidity;BMP_temperature;BMP_pressure;BME280_temperature;BME280_humidity;BME280_pressure;Samples;Min_cycle;Max_cycle;Signal;HPM_P1;HPM_P2
2022/05/28 00:02:11;;;;;;;;;;;;;;;12.92;57.74;100657.53;6281203;22;1880;-88
2022/05/28 00:04:36;;;;;;;;;;;;;;;13.04;57.33;100644.19;6281756;22;1199;-87
2022/05/28 00:07:02;;;;;;;;;;;;;;;12.89;58.50;100646.00;6281897;22;1158;-88
2022/05/28 00:09:27;;;;;;;;;;;;;;;12.49;58.43;100652.75;6281347;22;1142;-88
2022/05/28 00:11:53;;;;;;;;;;;;;;;12.52;58.36;100635.69;6283201;22;869;-87
2022/05/28 00:14:18;;;;;;;;;;;;;;;12.41;59.08;100642.41;6281575;22;1195;-88
2022/05/28 00:16:45;;;;;;;;;;;;;;;12.51;59.31;100641.47;6282489;22;725;-88
2022/05/28 00:19:11;;;;;;;;;;;;;;;12.64;58.48;100635.28;6308852;22;774;-88
2022/05/28 00:21:36;;;;;;;;;;;;;;;12.86;57.77;100632.03;6308497;22;1931;-88
2022/05/28 00:24:01;;;;;;;;;;;;;;;13.11;56.81;100628.16;6281505;22;1199;-88
2022/05/28 00:26:26;;;;;;;;;;;;;;;13.18;56.88;100629.44;6281166;22;1249;-88
2022/05/28 00:28:52;;;;;;;;;;;;;;;13.15;56.93;100623.75;6281308;22;1062;-88
2022/05/28 00:31:17;;;;;;;;;;;;;;;13.21;56.57;100625.31;6282436;22;1163;-89
2022/05/28 00:33:42;;;;;;;;;;;;;;;13.22;57.33;100629.69;6283594;22;1246;-88
2022/05/28 00:36:09;;;;;;;;;;;;;;;12.92;58.04;100628.13;6293028;22;1281;-88
2022/05/28 00:38:35;;;;;;;;;;;;;;;12.71;58.31;100624.78;6281904;22;1252;-88
2022/05/28 00:41:00;;;;;;;;;;;;;;;12.67;59.00;100623.75;6282369;22;1233;-88
2022/05/28 00:43:27;;;;;;;;;;;;;;;12.69;58.38;100623.44;6282019;22;1888;-88
2022/05/28 00:45:54;;;;;;;;;;;;;;;12.95;58.72;100622.03;6281820;22;1305;-88
2022/05/28 00:48:24;;;;;;;;;;;;;;;13.05;58.42;100623.84;6281876;22;1154;-88
2022/05/28 00:50:49;;;;;;;;;;;;;;;12.69;58.45;100620.69;6281756;22;1241;-88
2022/05/28 00:53:15;;;;;;;;;;;;;;;12.78;58.34;100619.75;6308728;22;1030;-87
2022/05/28 00:55:40;;;;;;;;;;;;;;;13.04;57.68;100617.53;6281137;22;1188;-88
2022/05/28 00:58:06;;;;;;;;;;;;;;;12.92;58.30;100610.81;6281437;22;1205;-89
2022/05/28 01:00:33;;;;;;;;;;;;;;;12.42;58.65;100611.06;6281110;22;1163;-89
2022/05/28 01:03:12;;;;;;;;;;;;;;;12.34;59.54;100608.13;6280996;22;1927;-88
2022/05/28 01:05:46;;;;;;;;;;;;;;;12.55;59.83;100608.75;6281500;22;1355;-89
2022/05/28 01:08:27;;;;;;;;;;;;;;;12.28;59.50;100604.63;6308565;22;824;-88
2022/05/28 01:11:10;;;;;;;;;;;;;;;12.66;60.01;100605.63;6281841;22;1248;-88
2022/05/28 01:13:45;;;;;;;;;;;;;;;12.79;59.03;100607.66;6281999;22;1237;-88
2022/05/28 01:16:14;;;;;;;;;;;;;;;12.85;59.24;100600.16;6281783;22;1264;-88
2022/05/28 01:18:43;;;;;;;;;;;;;;;12.97;58.43;100586.84;6282249;22;1191;-88
2022/05/28 01:21:13;;;;;;;;;;;;;;;12.77;58.97;100595.31;6309887;22;801;-88
2022/05/28 01:23:51;;;;;;;;;;;;;;;12.48;59.46;100581.66;6280916;22;1930;-88
2022/05/28 01:26:20;;;;;;;;;;;;;;;12.52;59.51;100585.44;6281148;22;1201;-88
2022/05/28 01:28:47;;;;;;;;;;;;;;;12.59;58.99;100582.38;6280440;22;1194;-87
2022/05/28 01:31:13;;;;;;;;;;;;;;;12.46;59.07;100587.44;6281914;22;1213;-88
2022/05/28 01:33:41;;;;;;;;;;;;;;;12.29;60.21;100581.56;6281173;22;1166;-89
2022/05/28 01:36:08;;;;;;;;;;;;;;;12.57;60.35;100576.34;6281574;22;1293;-89
2022/05/28 01:38:34;;;;;;;;;;;;;;;12.21;60.65;100575.91;6281080;22;1173;-87
2022/05/28 01:41:00;;;;;;;;;;;;;;;12.07;61.79;100584.00;6280904;22;1253;-89
2022/05/28 01:43:26;;;;;;;;;;;;;;;12.47;60.01;100572.59;6280860;22;1880;-87
2022/05/28 01:45:52;;;;;;;;;;;;;;;12.61;60.06;100566.41;6308034;22;1281;-88
2022/05/28 01:48:18;;;;;;;;;;;;;;;12.58;59.61;100565.06;6280582;22;1279;-89
2022/05/28 01:50:45;;;;;;;;;;;;;;;12.44;60.77;100559.44;6308232;22;829;-89
2022/05/28 01:54:06;;;;;;;;;;;;;;;11.92;61.86;100560.22;6280727;22;1233;-88
2022/05/28 01:56:00;;;;;;;;;;;;;;;11.76;62.72;100553.25;6309182;22;1232;-89
2022/05/28 01:58:25;;;;;;;;;;;;;;;12.43;61.41;100556.97;6283037;22;1304;-88
2022/05/28 02:00:50;;;;;;;;;;;;;;;12.41;61.25;100556.47;6283428;22;1186;-89
2022/05/28 02:03:15;;;;;;;;;;;;;;;12.56;61.18;100550.81;6283573;22;1931;-88
2022/05/28 02:05:40;;;;;;;;;;;;;;;12.36;61.08;100564.75;6284036;22;1281;-89
2022/05/28 02:08:05;;;;;;;;;;;;;;;11.97;62.02;100553.91;6283656;22;999;-88
2022/05/28 02:10:31;;;;;;;;;;;;;;;12.11;62.55;100552.13;6284019;22;909;-88
2022/05/28 02:13:03;;;;;;;;;;;;;;;12.06;62.80;100554.91;6283847;22;1197;-88
2022/05/28 02:15:28;;;;;;;;;;;;;;;12.15;62.82;100550.44;6282780;22;1332;-89
2022/05/28 02:18:01;;;;;;;;;;;;;;;12.20;62.19;100568.75;6309872;22;994;-88
2022/05/28 02:20:50;;;;;;;;;;;;;;;11.93;63.21;100561.88;6282709;22;1233;-88
2022/05/28 02:23:18;;;;;;;;;;;;;;;11.82;63.61;100560.34;6282839;22;1884;-89
2022/05/28 02:25:53;;;;;;;;;;;;;;;11.91;63.21;100574.25;6282470;22;1360;-88
2022/05/28 02:28:22;;;;;;;;;;;;;;;12.04;63.65;100559.88;6282670;22;1351;-89
2022/05/28 02:30:49;;;;;;;;;;;;;;;12.08;63.09;100555.41;6282509;22;1182;-88
2022/05/28 02:33:15;;;;;;;;;;;;;;;11.99;63.33;100557.97;6282387;22;1285;-88
2022/05/28 02:35:40;;;;;;;;;;;;;;;11.83;63.67;100556.47;6282664;22;1232;-89
2022/05/28 02:38:06;;;;;;;;;;;;;;;11.77;63.41;100551.31;6282349;22;1441;-88
2022/05/28 02:40:31;;;;;;;;;;;;;;;11.89;63.48;100552.59;6282456;22;1154;-89
2022/05/28 02:42:56;;;;;;;;;;;;;;;11.72;64.54;100546.69;6282485;22;1876;-88
2022/05/28 02:45:21;;;;;;;;;;;;;;;11.79;63.81;100555.44;6284441;22;1254;-88
2022/05/28 02:47:46;;;;;;;;;;;;;;;11.59;64.83;100550.06;6310727;22;1069;-87
2022/05/28 02:50:12;;;;;;;;;;;;;;;11.63;64.22;100549.22;6310695;22;765;-88
2022/05/28 02:52:37;;;;;;;;;;;;;;;11.86;63.96;100555.09;6284125;22;1301;-88
2022/05/28 02:55:02;;;;;;;;;;;;;;;11.88;63.83;100550.97;6310398;22;1258;-88
2022/05/28 02:57:28;;;;;;;;;;;;;;;11.66;65.26;100567.81;6282869;22;1099;-88
2022/05/28 02:59:56;;;;;;;;;;;;;;;11.66;64.12;100554.09;6282781;22;1349;-88
2022/05/28 03:02:21;;;;;;;;;;;;;;;11.79;64.37;100560.09;6282686;22;1884;-88
2022/05/28 03:07:21;;;;;;;;;;;;;;;11.46;64.87;100564.44;6248827;23;616;-85
2022/05/28 03:09:46;;;;;;;;;;;;;;;11.25;66.14;100552.75;6221267;23;1311;-85
2022/05/28 03:12:11;;;;;;;;;;;;;;;11.56;66.19;100556.13;6221640;23;1024;-86
2022/05/28 03:14:36;;;;;;;;;;;;;;;11.79;65.29;100560.09;6221011;23;1400;-85
2022/05/28 03:17:03;;;;;;;;;;;;;;;11.39;65.59;100559.28;6250984;22;1248;-85
2022/05/28 03:19:28;;;;;;;;;;;;;;;11.28;66.08;100560.44;6279497;22;809;-86
2022/05/28 03:21:53;;;;;;;;;;;;;;;11.49;65.87;100559.19;6251629;22;1947;-86
2022/05/28 03:24:18;;;;;;;;;;;;;;;11.23;66.38;100564.00;6251878;22;980;-85
2022/05/28 03:26:43;;;;;;;;;;;;;;;11.46;65.62;100575.38;6252338;22;1365;-85
2022/05/28 03:29:09;;;;;;;;;;;;;;;11.33;65.38;100571.34;6253077;22;1309;-85
2022/05/28 03:31:34;;;;;;;;;;;;;;;11.23;65.64;100582.38;6255082;22;1289;-85
2022/05/28 03:33:59;;;;;;;;;;;;;;;11.49;65.29;100577.53;6255427;22;1250;-86
2022/05/28 03:36:25;;;;;;;;;;;;;;;11.54;64.60;100575.59;6253134;22;1270;-84
2022/05/28 03:38:50;;;;;;;;;;;;;;;11.61;64.23;100586.25;6253992;22;1201;-85
2022/05/28 03:41:15;;;;;;;;;;;;;;;11.24;65.07;100581.25;6255110;22;1301;-85
2022/05/28 03:43:41;;;;;;;;;;;;;;;11.25;65.07;100580.16;6280470;22;1884;-85
2022/05/28 03:46:17;;;;;;;;;;;;;;;11.23;65.13;100587.84;6255381;22;1243;-86
2022/05/28 03:48:42;;;;;;;;;;;;;;;11.37;64.38;100588.88;6255506;22;1166;-86
2022/05/28 03:51:07;;;;;;;;;;;;;;;11.09;65.49;100589.56;6254783;22;1314;-85
2022/05/28 03:53:32;;;;;;;;;;;;;;;11.33;65.14;100583.13;6282035;22;852;-86
2022/05/28 03:55:57;;;;;;;;;;;;;;;11.78;64.65;100592.19;6282184;22;1163;-86
2022/05/28 03:58:23;;;;;;;;;;;;;;;11.85;64.03;100594.59;6258932;22;1063;-86
2022/05/28 04:00:48;;;;;;;;;;;;;;;11.41;64.74;100589.09;6287978;22;928;-85
2022/05/28 04:03:13;;;;;;;;;;;;;;;11.23;66.26;100596.06;6253167;22;1892;-85
2022/05/28 04:05:39;;;;;;;;;;;;;;;11.46;65.45;100592.66;6252835;22;1187;-86
2022/05/28 04:08:04;;;;;;;;;;;;;;;11.41;65.52;100589.94;6252377;22;1318;-85
2022/05/28 04:10:29;;;;;;;;;;;;;;;11.48;65.88;100595.94;6253945;22;1296;-85
2022/05/28 04:12:55;;;;;;;;;;;;;;;11.40;65.31;100596.50;6252868;22;902;-86
2022/05/28 04:15:20;;;;;;;;;;;;;;;11.41;65.87;100600.91;6253564;22;1191;-85
2022/05/28 04:17:45;;;;;;;;;;;;;;;11.59;64.98;100602.97;6251295;22;1357;-85
2022/05/28 04:20:11;;;;;;;;;;;;;;;11.67;65.17;100598.81;6251132;22;1016;-85
2022/05/28 04:22:36;;;;;;;;;;;;;;;12.01;65.34;100598.84;6253208;22;1936;-86
2022/05/28 04:25:01;;;;;;;;;;;;;;;11.99;64.53;100610.09;6279061;22;1143;-85
2022/05/28 04:27:26;;;;;;;;;;;;;;;11.50;66.64;100606.59;6252341;22;1191;-85
2022/05/28 04:29:52;;;;;;;;;;;;;;;11.78;66.37;100602.31;6252213;22;1171;-85
2022/05/28 04:32:17;;;;;;;;;;;;;;;11.52;65.78;100610.69;6251575;22;757;-85
2022/05/28 04:34:42;;;;;;;;;;;;;;;11.26;67.16;100604.56;6250213;22;1314;-86
2022/05/28 04:37:07;;;;;;;;;;;;;;;11.02;67.76;100613.72;6250471;22;1352;-85
2022/05/28 04:39:33;;;;;;;;;;;;;;;11.15;67.13;100608.44;6252174;22;1163;-85
2022/05/28 04:41:58;;;;;;;;;;;;;;;10.95;68.05;100603.88;6252637;22;1920;-86
2022/05/28 04:44:23;;;;;;;;;;;;;;;10.96;68.36;100612.94;6278106;22;762;-85
2022/05/28 04:46:48;;;;;;;;;;;;;;;11.24;66.96;100627.84;6278884;22;1246;-86
2022/05/28 04:49:13;;;;;;;;;;;;;;;11.32;66.98;100616.28;6250547;22;1027;-85
2022/05/28 04:51:38;;;;;;;;;;;;;;;11.30;66.20;100610.28;6250711;22;1112;-86
2022/05/28 04:54:04;;;;;;;;;;;;;;;10.87;67.35;100615.44;6250389;22;976;-85
2022/05/28 04:56:29;;;;;;;;;;;;;;;10.92;67.55;100614.56;6278505;22;1168;-85
2022/05/28 04:58:54;;;;;;;;;;;;;;;10.98;67.30;100621.66;6278962;22;1034;-86
2022/05/28 05:01:21;;;;;;;;;;;;;;;11.06;67.60;100612.84;6279042;22;802;-85
2022/05/28 05:03:46;;;;;;;;;;;;;;;11.48;66.58;100617.88;6250828;22;1918;-85
2022/05/28 05:06:12;;;;;;;;;;;;;;;11.37;65.58;100628.06;6278482;22;1266;-86
2022/05/28 05:08:37;;;;;;;;;;;;;;;11.34;66.05;100622.31;6250837;22;1299;-84
2022/05/28 05:11:02;;;;;;;;;;;;;;;10.88;67.36;100619.00;6250629;22;952;-86
2022/05/28 05:13:27;;;;;;;;;;;;;;;11.03;68.11;100621.66;6250250;22;1289;-85
2022/05/28 05:15:53;;;;;;;;;;;;;;;11.40;66.75;100623.13;6250529;22;1198;-86
2022/05/28 05:18:18;;;;;;;;;;;;;;;11.47;65.74;100638.16;6277520;22;1022;-85
2022/05/28 05:20:43;;;;;;;;;;;;;;;11.44;65.88;100635.16;6251392;22;1282;-85
2022/05/28 05:23:08;;;;;;;;;;;;;;;11.33;66.26;100631.63;6250652;22;1881;-85
2022/05/28 05:25:33;;;;;;;;;;;;;;;11.42;66.33;100634.59;6251311;22;1254;-85
2022/05/28 05:27:58;;;;;;;;;;;;;;;11.16;67.00;100626.50;6278865;22;960;-85
2022/05/28 05:30:24;;;;;;;;;;;;;;;11.50;65.64;100632.09;6279175;22;975;-85
2022/05/28 05:32:49;;;;;;;;;;;;;;;11.60;65.49;100631.22;6281008;22;1000;-85
2022/05/28 05:35:14;;;;;;;;;;;;;;;11.66;64.61;100630.88;6254361;22;1219;-84
2022/05/28 05:37:39;;;;;;;;;;;;;;;11.72;65.98;100646.22;6253784;22;1270;-85
2022/05/28 05:40:05;;;;;;;;;;;;;;;11.30;65.38;100640.44;6280683;22;1085;-85
2022/05/28 05:42:30;;;;;;;;;;;;;;;11.22;64.87;100644.59;6281138;22;1920;-85
2022/05/28 05:44:55;;;;;;;;;;;;;;;11.28;65.27;100648.94;6253889;22;1190;-84
2022/05/28 05:47:21;;;;;;;;;;;;;;;11.40;64.77;100654.06;6281227;22;785;-86
2022/05/28 05:49:46;;;;;;;;;;;;;;;11.31;65.78;100658.53;6281618;22;967;-85
2022/05/28 05:52:11;;;;;;;;;;;;;;;11.48;65.67;100658.97;6280558;22;782;-85
2022/05/28 05:54:36;;;;;;;;;;;;;;;11.92;64.78;100660.91;6280358;22;817;-86
2022/05/28 05:57:02;;;;;;;;;;;;;;;11.53;64.01;100669.91;6253246;22;1326;-84
2022/05/28 05:59:27;;;;;;;;;;;;;;;11.61;64.88;100676.72;6279829;22;1032;-85
2022/05/28 06:01:52;;;;;;;;;;;;;;;11.75;63.55;100664.84;6252471;22;1923;-85
2022/05/28 06:04:18;;;;;;;;;;;;;;;11.83;63.48;100676.31;6280018;22;828;-86
2022/05/28 06:06:43;;;;;;;;;;;;;;;11.84;64.01;100675.22;6253476;22;1286;-85
2022/05/28 06:09:10;;;;;;;;;;;;;;;12.19;62.64;100672.22;6283663;22;825;-86
2022/05/28 06:11:36;;;;;;;;;;;;;;;11.85;62.81;100666.72;6254413;22;1273;-85
2022/05/28 06:14:01;;;;;;;;;;;;;;;11.96;63.81;100682.00;6254382;22;1159;-85
2022/05/28 06:16:26;;;;;;;;;;;;;;;11.96;62.55;100679.25;6282581;22;1169;-85
2022/05/28 06:18:51;;;;;;;;;;;;;;;11.87;62.30;100669.19;6254803;22;1187;-86
2022/05/28 06:21:17;;;;;;;;;;;;;;;11.61;64.27;100687.69;6253157;22;1301;-86
2022/05/28 06:23:42;;;;;;;;;;;;;;;11.58;62.62;100678.09;6281445;22;1942;-85
2022/05/28 06:26:07;;;;;;;;;;;;;;;11.73;64.53;100675.28;6281968;22;1193;-86
2022/05/28 06:28:32;;;;;;;;;;;;;;;11.61;62.63;100677.53;6254122;22;1308;-85
2022/05/28 06:31:01;;;;;;;;;;;;;;;11.69;63.21;100682.44;6281822;22;798;-86
2022/05/28 06:33:26;;;;;;;;;;;;;;;12.28;62.70;100670.50;6252062;22;1174;-86
2022/05/28 06:35:55;;;;;;;;;;;;;;;12.65;60.55;100674.56;6279148;22;1263;-86
2022/05/28 06:38:20;;;;;;;;;;;;;;;12.65;59.14;100663.56;6251015;22;1289;-85
2022/05/28 06:40:45;;;;;;;;;;;;;;;12.31;60.10;100663.63;6252232;22;1252;-85
2022/05/28 06:43:11;;;;;;;;;;;;;;;12.35;58.88;100673.72;6252497;22;1923;-86
2022/05/28 06:45:38;;;;;;;;;;;;;;;12.26;58.86;100678.19;6252500;22;1267;-85
2022/05/28 06:48:03;;;;;;;;;;;;;;;12.30;59.32;100670.22;6253895;22;1249;-86
2022/05/28 06:53:12;;;;;;;;;;;;;;;12.39;61.23;100676.72;6280501;22;599;-86
2022/05/28 06:55:37;;;;;;;;;;;;;;;12.62;59.19;100675.13;6280552;22;1167;-86
2022/05/28 06:58:04;;;;;;;;;;;;;;;12.67;60.28;100675.09;6252309;22;1333;-86
2022/05/28 07:00:29;;;;;;;;;;;;;;;12.71;57.48;100679.72;6252799;22;1254;-86
2022/05/28 07:02:54;;;;;;;;;;;;;;;12.31;59.04;100669.94;6252681;22;1873;-85
2022/05/28 07:05:19;;;;;;;;;;;;;;;12.57;59.37;100677.94;6252402;22;1358;-86
2022/05/28 07:07:44;;;;;;;;;;;;;;;12.54;58.37;100662.03;6279684;22;777;-86
2022/05/28 07:10:11;;;;;;;;;;;;;;;12.47;59.95;100654.13;6252424;22;1020;-86
2022/05/28 07:12:36;;;;;;;;;;;;;;;12.83;59.34;100652.69;6252033;22;1309;-86
2022/05/28 07:15:02;;;;;;;;;;;;;;;12.99;58.08;100656.06;6279689;22;1262;-86
2022/05/28 07:17:27;;;;;;;;;;;;;;;12.93;56.32;100657.22;6253090;22;1270;-86
2022/05/28 07:19:52;;;;;;;;;;;;;;;12.84;57.24;100659.00;6253201;22;1337;-86
2022/05/28 07:22:17;;;;;;;;;;;;;;;12.82;58.71;100661.19;6253154;22;1901;-85
2022/05/28 07:24:43;;;;;;;;;;;;;;;13.14;59.90;100655.91;6280445;22;964;-86
2022/05/28 07:27:11;;;;;;;;;;;;;;;12.70;57.47;100653.34;6279603;22;1330;-86
2022/05/28 07:29:36;;;;;;;;;;;;;;;12.62;56.53;100651.25;6253072;22;1228;-86
2022/05/28 07:32:01;;;;;;;;;;;;;;;12.21;58.69;100677.44;6281092;22;1015;-85
2022/05/28 07:34:26;;;;;;;;;;;;;;;11.99;59.18;100656.72;6281197;22;665;-86
2022/05/28 07:36:51;;;;;;;;;;;;;;;12.23;60.03;100654.09;6284636;22;1219;-85
2022/05/28 07:39:16;;;;;;;;;;;;;;;12.32;58.76;100666.09;6257814;22;1250;-85
2022/05/28 07:41:43;;;;;;;;;;;;;;;12.41;58.78;100658.06;6253557;22;1884;-86
2022/05/28 07:44:08;;;;;;;;;;;;;;;12.63;58.67;100654.81;6251073;22;1468;-86
2022/05/28 07:46:33;;;;;;;;;;;;;;;12.96;56.35;100667.63;6252149;22;1276;-86
2022/05/28 07:49:00;;;;;;;;;;;;;;;12.39;59.22;100665.75;6251610;22;1278;-85
2022/05/28 07:51:25;;;;;;;;;;;;;;;12.48;57.49;100664.03;6252198;22;1340;-85
2022/05/28 07:53:50;;;;;;;;;;;;;;;12.37;59.66;100668.78;6250729;22;1249;-86
2022/05/28 07:56:15;;;;;;;;;;;;;;;12.41;58.55;100669.03;6252761;22;1310;-86
2022/05/28 07:58:41;;;;;;;;;;;;;;;12.55;58.27;100672.72;6254606;22;1032;-85
2022/05/28 08:01:07;;;;;;;;;;;;;;;12.38;57.61;100662.19;6285411;22;1004;-85
2022/05/28 08:03:32;;;;;;;;;;;;;;;12.55;58.43;100670.00;6258925;22;1884;-85
2022/05/28 08:05:58;;;;;;;;;;;;;;;12.27;58.05;100677.09;6286096;22;1293;-85
2022/05/28 08:08:24;;;;;;;;;;;;;;;12.25;59.12;100679.28;6259032;22;1194;-86
2022/05/28 08:10:50;;;;;;;;;;;;;;;12.34;58.69;100687.72;6258819;22;1266;-85
2022/05/28 08:13:16;;;;;;;;;;;;;;;12.31;59.43;100686.41;6259419;22;1190;-86
2022/05/28 08:15:42;;;;;;;;;;;;;;;12.42;60.11;100685.19;6285252;22;1207;-84
2022/05/28 08:18:08;;;;;;;;;;;;;;;12.44;61.14;100687.66;6285984;22;789;-86
2022/05/28 08:23:19;;;;;;;;;;;;;;;12.47;61.16;100692.56;6285794;22;1940;-86
2022/05/28 08:25:44;;;;;;;;;;;;;;;12.46;60.21;100690.94;6259659;22;1313;-86
2022/05/28 08:28:10;;;;;;;;;;;;;;;12.33;61.53;100683.38;6260646;22;1155;-84
2022/05/28 08:30:38;;;;;;;;;;;;;;;12.63;62.60;100693.25;6252194;22;1174;-85
2022/05/28 08:33:03;;;;;;;;;;;;;;;12.63;62.44;100699.56;6252769;22;1300;-86
2022/05/28 08:35:28;;;;;;;;;;;;;;;12.34;63.69;100704.19;6252032;22;1299;-86
2022/05/28 08:37:53;;;;;;;;;;;;;;;12.29;63.13;100704.25;6252457;22;1290;-85
2022/05/28 08:40:18;;;;;;;;;;;;;;;12.41;63.26;100691.81;6280236;22;814;-85
2022/05/28 08:42:44;;;;;;;;;;;;;;;12.49;61.46;100696.69;6277569;22;1951;-85
2022/05/28 08:45:11;;;;;;;;;;;;;;;12.88;62.85;100699.31;6251284;22;1191;-85
2022/05/28 08:47:40;;;;;;;;;;;;;;;13.11;62.63;100688.59;6251287;22;1182;-85
2022/05/28 08:50:07;;;;;;;;;;;;;;;13.05;58.27;100692.53;6251380;22;1298;-88
2022/05/28 08:52:52;;;;;;;;;;;;;;;13.11;59.89;100683.09;6276885;22;836;-88
2022/05/28 08:55:24;;;;;;;;;;;;;;;13.17;59.35;100692.97;6249561;22;1253;-88
2022/05/28 08:57:58;;;;;;;;;;;;;;;13.43;61.01;100696.25;6250230;22;1281;-89
2022/05/28 09:00:38;;;;;;;;;;;;;;;13.02;59.61;100680.19;6250790;22;1286;-88
2022/05/28 09:03:17;;;;;;;;;;;;;;;13.07;59.32;100682.91;6250592;22;1926;-89
2022/05/28 09:05:45;;;;;;;;;;;;;;;13.11;60.72;100678.44;6251815;22;1399;-89
2022/05/28 09:08:10;;;;;;;;;;;;;;;12.86;61.27;100675.97;6279429;22;996;-88
2022/05/28 09:10:40;;;;;;;;;;;;;;;12.94;60.30;100678.09;6268468;22;1405;-89
2022/05/28 09:13:10;;;;;;;;;;;;;;;13.37;59.19;100683.66;6250246;22;1257;-89
2022/05/28 09:15:36;;;;;;;;;;;;;;;13.49;60.60;100675.81;6277576;22;1152;-88
2022/05/28 09:18:02;;;;;;;;;;;;;;;12.72;58.80;100672.28;6250643;22;1294;-89
2022/05/28 09:20:35;;;;;;;;;;;;;;;12.58;59.75;100674.09;6249910;22;1257;-87
2022/05/28 09:23:00;;;;;;;;;;;;;;;12.79;59.00;100664.53;6276843;22;1892;-88
2022/05/28 09:25:29;;;;;;;;;;;;;;;13.15;57.81;100657.53;6250044;22;1414;-86
2022/05/28 09:28:21;;;;;;;;;;;;;;;13.24;57.27;100669.53;6250638;22;1155;-87
2022/05/28 09:30:55;;;;;;;;;;;;;;;13.21;58.51;100678.34;6250819;22;1174;-88
2022/05/28 09:33:39;;;;;;;;;;;;;;;13.62;55.74;100677.81;6250201;22;1281;-88
2022/05/28 09:36:11;;;;;;;;;;;;;;;13.37;57.12;100680.91;6250581;22;1273;-88
2022/05/28 09:38:39;;;;;;;;;;;;;;;13.29;58.29;100671.38;6250431;22;1306;-88
2022/05/28 09:41:04;;;;;;;;;;;;;;;13.79;55.20;100663.53;6250319;22;1379;-86
2022/05/28 09:43:36;;;;;;;;;;;;;;;13.71;55.07;100659.53;6265291;22;1872;-91
2022/05/28 09:46:25;;;;;;;;;;;;;;;13.53;52.61;100641.09;6277176;22;1317;-93
2022/05/28 09:49:04;;;;;;;;;;;;;;;13.81;53.06;100656.63;6278295;22;801;-91
2022/05/28 09:51:31;;;;;;;;;;;;;;;13.81;52.12;100647.56;6276750;22;1321;-90
2022/05/28 09:54:23;;;;;;;;;;;;;;;13.53;53.88;100661.16;6276330;22;1358;-91
2022/05/28 09:57:09;;;;;;;;;;;;;;;13.37;53.30;100643.22;6276143;22;1319;-90
2022/05/28 09:59:36;;;;;;;;;;;;;;;13.30;54.75;100647.47;6275738;22;1253;-90
2022/05/28 10:02:07;;;;;;;;;;;;;;;13.23;53.96;100650.56;6275537;22;1897;-90
2022/05/28 10:04:33;;;;;;;;;;;;;;;13.30;52.56;100644.72;6277679;22;844;-92
2022/05/28 10:07:00;;;;;;;;;;;;;;;13.36;54.21;100638.03;6276191;22;1180;-90
2022/05/28 10:09:30;;;;;;;;;;;;;;;13.37;54.09;100647.91;6276261;22;1273;-90
2022/05/28 10:11:57;;;;;;;;;;;;;;;13.59;55.04;100650.91;6276157;22;1222;-91
2022/05/28 10:14:23;;;;;;;;;;;;;;;13.59;52.47;100662.75;6276027;22;1350;-90
2022/05/28 10:16:53;;;;;;;;;;;;;;;13.25;54.52;100657.41;6276702;22;1280;-91
2022/05/28 10:19:30;;;;;;;;;;;;;;;13.07;55.99;100696.63;6278423;22;1312;-90
2022/05/28 10:21:57;;;;;;;;;;;;;;;12.43;59.62;100697.81;6278430;22;1930;-91
2022/05/28 10:24:24;;;;;;;;;;;;;;;12.25;59.80;100690.28;6277857;22;1261;-90
2022/05/28 10:26:52;;;;;;;;;;;;;;;12.51;58.71;100674.41;6278081;22;1221;-91
2022/05/28 10:29:24;;;;;;;;;;;;;;;12.95;57.68;100679.72;6278499;22;1183;-92
2022/05/28 10:31:50;;;;;;;;;;;;;;;13.24;57.45;100680.53;6278937;22;1320;-92
2022/05/28 10:34:35;;;;;;;;;;;;;;;13.06;56.59;100680.44;6277985;22;1201;-92
2022/05/28 10:37:19;;;;;;;;;;;;;;;13.20;57.36;100673.97;6280222;22;899;-89
2022/05/28 10:39:44;;;;;;;;;;;;;;;13.31;57.41;100679.34;6279988;22;1092;-93
2022/05/28 10:42:11;;;;;;;;;;;;;;;13.59;59.58;100664.66;6279688;22;1941;-92
2022/05/28 10:44:37;;;;;;;;;;;;;;;14.10;57.78;100678.50;6279426;22;829;-89
2022/05/28 10:47:07;;;;;;;;;;;;;;;14.46;56.90;100680.69;6277550;22;1278;-89
2022/05/28 10:49:39;;;;;;;;;;;;;;;14.42;52.87;100657.59;6277657;22;1197;-91
2022/05/28 10:52:12;;;;;;;;;;;;;;;14.45;53.65;100677.13;6277626;22;1315;-91
2022/05/28 10:54:52;;;;;;;;;;;;;;;14.01;55.29;100681.09;6277823;22;1256;-91
2022/05/28 10:57:33;;;;;;;;;;;;;;;13.69;56.41;100677.47;6277607;22;1290;-92
2022/05/28 11:00:08;;;;;;;;;;;;;;;13.49;57.89;100664.81;6277602;22;1154;-90
2022/05/28 11:02:57;;;;;;;;;;;;;;;13.54;58.48;100665.53;6277299;22;1933;-91
2022/05/28 11:05:38;;;;;;;;;;;;;;;14.16;59.72;100670.94;6277424;22;1229;-91
2022/05/28 11:08:17;;;;;;;;;;;;;;;14.33;59.31;100676.72;6277346;22;1269;-91
2022/05/28 11:11:01;;;;;;;;;;;;;;;14.21;57.61;100665.34;6277337;22;1248;-91
2022/05/28 11:13:26;;;;;;;;;;;;;;;14.65;55.61;100659.38;6277152;22;1244;-91
2022/05/28 11:16:01;;;;;;;;;;;;;;;14.30;56.61;100655.28;6277159;22;1015;-92
2022/05/28 11:18:38;;;;;;;;;;;;;;;14.36;58.50;100651.34;6277178;22;1190;-92
2022/05/28 11:21:15;;;;;;;;;;;;;;;14.79;53.70;100654.72;6278738;22;905;-91
2022/05/28 11:23:43;;;;;;;;;;;;;;;14.53;54.95;100668.16;6277006;22;1880;-92
2022/05/28 11:26:14;;;;;;;;;;;;;;;13.75;54.85;100668.03;6277025;22;1316;-91
2022/05/28 11:28:58;;;;;;;;;;;;;;;13.02;55.00;100682.94;6277048;22;1339;-91
2022/05/28 11:31:38;;;;;;;;;;;;;;;12.69;56.34;100695.66;6277093;22;1253;-90
2022/05/28 11:34:21;;;;;;;;;;;;;;;12.58;61.17;100669.41;6277793;22;1328;-91
2022/05/28 11:36:53;;;;;;;;;;;;;;;13.10;59.89;100671.28;6277093;22;1289;-91
2022/05/28 11:39:38;;;;;;;;;;;;;;;13.25;56.66;100660.16;6277453;22;1230;-90
2022/05/28 11:42:39;;;;;;;;;;;;;;;13.57;57.81;100661.38;6214858;22;1928;-91
2022/05/28 11:45:06;;;;;;;;;;;;;;;13.59;57.20;100661.91;6155100;23;1186;-90
2022/05/28 11:47:31;;;;;;;;;;;;;;;13.52;60.07;100655.97;6247374;22;1164;-91
2022/05/28 11:52:53;;;;;;;;;;;;;;;13.86;59.14;100640.06;6278678;22;1285;-91
2022/05/28 11:55:23;;;;;;;;;;;;;;;14.03;58.40;100648.56;6277142;22;1359;-91
2022/05/28 11:57:57;;;;;;;;;;;;;;;13.94;57.58;100636.63;6278129;22;1202;-90
2022/05/28 12:00:24;;;;;;;;;;;;;;;14.31;55.02;100630.22;6277929;22;1275;-90
2022/05/28 12:02:59;;;;;;;;;;;;;;;14.55;54.09;100632.84;6280052;22;1880;-91
2022/05/28 12:05:25;;;;;;;;;;;;;;;14.38;54.98;100616.91;6277106;22;1225;-91
2022/05/28 12:07:57;;;;;;;;;;;;;;;14.09;55.08;100620.97;6276832;22;1218;-90
2022/05/28 12:10:48;;;;;;;;;;;;;;;13.98;56.67;100626.63;6276683;22;1310;-91
2022/05/28 12:13:30;;;;;;;;;;;;;;;13.89;57.05;100624.88;6270186;22;1263;-91
2022/05/28 12:16:04;;;;;;;;;;;;;;;14.18;58.60;100630.19;6276656;22;1174;-92
2022/05/28 12:18:29;;;;;;;;;;;;;;;14.28;56.81;100638.28;6276410;22;1555;-91
2022/05/28 12:20:59;;;;;;;;;;;;;;;14.29;58.67;100634.41;6276581;22;1401;-90
2022/05/28 12:23:36;;;;;;;;;;;;;;;14.36;58.33;100624.63;6276380;22;1884;-91
2022/05/28 12:26:05;;;;;;;;;;;;;;;14.34;59.06;100609.53;6276655;22;1313;-89
2022/05/28 12:28:42;;;;;;;;;;;;;;;14.94;56.79;100620.53;6278421;22;852;-90
2022/05/28 12:31:08;;;;;;;;;;;;;;;15.11;54.46;100591.22;6277512;22;1218;-90
2022/05/28 12:33:44;;;;;;;;;;;;;;;15.70;55.91;100614.19;6276711;22;1380;-89
2022/05/28 12:36:19;;;;;;;;;;;;;;;15.22;53.03;100611.13;6277598;22;1150;-91
2022/05/28 12:38:53;;;;;;;;;;;;;;;14.47;55.94;100622.53;6250957;22;1710;-90
2022/05/28 12:41:20;;;;;;;;;;;;;;;14.17;63.35;100670.66;6276380;22;1277;-90
2022/05/28 12:44:06;;;;;;;;;;;;;;;12.10;70.71;100696.72;6275880;22;1912;-90
2022/05/28 12:46:54;;;;;;;;;;;;;;;10.74;79.35;100691.84;6255569;22;1191;-90
2022/05/28 12:49:27;;;;;;;;;;;;;;;10.62;81.76;100673.00;6276458;22;1112;-92
2022/05/28 12:51:59;;;;;;;;;;;;;;;10.75;77.30;100664.19;6276360;22;1293;-93
2022/05/28 12:54:29;;;;;;;;;;;;;;;11.15;80.01;100652.25;6276863;22;1218;-93
2022/05/28 12:57:12;;;;;;;;;;;;;;;11.46;76.92;100660.34;6276491;22;1461;-93
2022/05/28 12:59:42;;;;;;;;;;;;;;;11.85;72.87;100665.91;6276650;22;1285;-94
2022/05/28 13:02:19;;;;;;;;;;;;;;;12.05;72.33;100666.59;6276652;22;1928;-92
2022/05/28 13:04:50;;;;;;;;;;;;;;;12.15;71.75;100670.34;6276193;22;1249;-93
2022/05/28 13:07:27;;;;;;;;;;;;;;;12.10;72.48;100672.00;6276398;22;1224;-93